Terminal Aerodrome Forecast
Issued by NWS Charleston, WV

Current Version | Previous Version | Graphics & Text | Print | Product List | Glossary On
Versions: 1 2 3 4 5 6 7 8 9 10 11 12 13 14 15 16 17 18 19 20 21 22
613
FTUS41 KRLX 201500 AAA
TAFEKN
TAF AMD
KEKN 201500Z 2015/2112 28005KT P6SM SCT025
     FM202000 25005KT P6SM BKN080
     FM210100 20005KT 6SM -SHRA OVC035
     FM210300 20004KT 3SM -SHRA OVC015
     FM210600 VRB03KT 2SM -SHRA OVC003=

USA.gov is the U.S. government's official web portal to all federal, state and local government web resources and services.